Evanston, Illinois
Current Conditions -  °F | °C
As of 6:52 AM on Monday 22 Dec 2014 (Local Time) from KPWK Reporting Station
Haze Haze  
Wind Chill: 32°   Ceiling: 8500
Heat Index: 32°   Visibility: 6mi
Dew Point: 27°   Wind: 3mph
Humidity: 82%   Direction: 130°SE
Pressure: 29.95"   Gusts: NA
Location:  42.06°N, 87.69°W
Report Text: KPWK 221252Z 13003KT 6SM HZ SCT065 OVC085 00/M03 A2995 RMK AO2 SLP148 T00001028
Loading
Personal Weather Stations






























Interactive Weather Map New forecast layout! Learn more

10-Day Weather Forecast

Advertisements
Track Severe Weather on mobile